sensor_id;sensor_type;location;lat;lon;timestamp;P1;durP1;ratioP1;P2;durP2;ratioP2
78402;SDS011;67687;43.508;1.504;2023-05-20T00:00:29;12.82;;;5.65;;
78402;SDS011;67687;43.508;1.504;2023-05-20T00:02:56;11.27;;;5.83;;
78402;SDS011;67687;43.508;1.504;2023-05-20T00:05:26;11.05;;;5.07;;
78402;SDS011;67687;43.508;1.504;2023-05-20T00:07:53;10.52;;;5.63;;
78402;SDS011;67687;43.508;1.504;2023-05-20T00:10:19;11.70;;;6.28;;
78402;SDS011;67687;43.508;1.504;2023-05-20T00:12:46;12.05;;;5.40;;
78402;SDS011;67687;43.508;1.504;2023-05-20T00:15:14;10.87;;;5.60;;
78402;SDS011;67687;43.508;1.504;2023-05-20T00:17:41;9.60;;;5.70;;
78402;SDS011;67687;43.508;1.504;2023-05-20T00:20:08;12.75;;;5.40;;
78402;SDS011;67687;43.508;1.504;2023-05-20T00:22:35;9.52;;;5.25;;
78402;SDS011;67687;43.508;1.504;2023-05-20T00:25:02;11.00;;;5.72;;
78402;SDS011;67687;43.508;1.504;2023-05-20T00:27:29;10.33;;;5.17;;
78402;SDS011;67687;43.508;1.504;2023-05-20T00:29:56;11.00;;;5.75;;
78402;SDS011;67687;43.508;1.504;2023-05-20T00:32:24;12.52;;;5.70;;
78402;SDS011;67687;43.508;1.504;2023-05-20T00:34:55;11.15;;;6.05;;
78402;SDS011;67687;43.508;1.504;2023-05-20T00:37:22;13.20;;;6.20;;
78402;SDS011;67687;43.508;1.504;2023-05-20T00:39:49;13.37;;;6.43;;
78402;SDS011;67687;43.508;1.504;2023-05-20T00:42:18;10.85;;;5.25;;
78402;SDS011;67687;43.508;1.504;2023-05-20T00:44:46;12.52;;;5.60;;
78402;SDS011;67687;43.508;1.504;2023-05-20T00:47:13;8.75;;;5.90;;
78402;SDS011;67687;43.508;1.504;2023-05-20T00:49:41;10.77;;;5.70;;
78402;SDS011;67687;43.508;1.504;2023-05-20T00:52:09;11.23;;;5.43;;
78402;SDS011;67687;43.508;1.504;2023-05-20T00:54:36;9.90;;;5.75;;
78402;SDS011;67687;43.508;1.504;2023-05-20T00:57:03;12.70;;;5.70;;
78402;SDS011;67687;43.508;1.504;2023-05-20T00:59:31;10.73;;;5.65;;
78402;SDS011;67687;43.508;1.504;2023-05-20T01:01:58;12.55;;;5.80;;
78402;SDS011;67687;43.508;1.504;2023-05-20T01:04:25;11.40;;;5.70;;
78402;SDS011;67687;43.508;1.504;2023-05-20T01:06:54;9.65;;;5.60;;
78402;SDS011;67687;43.508;1.504;2023-05-20T01:09:21;10.98;;;5.35;;
78402;SDS011;67687;43.508;1.504;2023-05-20T01:11:49;11.00;;;5.60;;
78402;SDS011;67687;43.508;1.504;2023-05-20T01:14:18;9.95;;;5.63;;
78402;SDS011;67687;43.508;1.504;2023-05-20T01:16:47;10.00;;;5.90;;
78402;SDS011;67687;43.508;1.504;2023-05-20T01:19:17;12.52;;;5.90;;
78402;SDS011;67687;43.508;1.504;2023-05-20T01:21:48;12.45;;;5.95;;
78402;SDS011;67687;43.508;1.504;2023-05-20T01:24:18;10.27;;;5.82;;
78402;SDS011;67687;43.508;1.504;2023-05-20T01:26:45;10.88;;;6.18;;
78402;SDS011;67687;43.508;1.504;2023-05-20T01:29:12;12.20;;;5.47;;
78402;SDS011;67687;43.508;1.504;2023-05-20T01:31:42;11.55;;;5.30;;
78402;SDS011;67687;43.508;1.504;2023-05-20T01:34:10;10.82;;;5.78;;
78402;SDS011;67687;43.508;1.504;2023-05-20T01:36:38;9.80;;;6.00;;
78402;SDS011;67687;43.508;1.504;2023-05-20T01:39:05;9.93;;;5.95;;
78402;SDS011;67687;43.508;1.504;2023-05-20T01:41:33;10.60;;;6.30;;
78402;SDS011;67687;43.508;1.504;2023-05-20T01:44:01;10.27;;;6.10;;
78402;SDS011;67687;43.508;1.504;2023-05-20T01:46:31;13.98;;;6.28;;
78402;SDS011;67687;43.508;1.504;2023-05-20T01:48:58;11.70;;;5.55;;
78402;SDS011;67687;43.508;1.504;2023-05-20T01:51:25;12.77;;;5.85;;
78402;SDS011;67687;43.508;1.504;2023-05-20T01:53:51;10.10;;;5.80;;
78402;SDS011;67687;43.508;1.504;2023-05-20T01:56:18;9.82;;;5.63;;
78402;SDS011;67687;43.508;1.504;2023-05-20T01:58:47;11.05;;;6.05;;
78402;SDS011;67687;43.508;1.504;2023-05-20T02:01:14;12.73;;;6.03;;
78402;SDS011;67687;43.508;1.504;2023-05-20T02:03:41;11.45;;;5.57;;
78402;SDS011;67687;43.508;1.504;2023-05-20T02:06:07;13.10;;;6.57;;
78402;SDS011;67687;43.508;1.504;2023-05-20T02:08:34;10.95;;;6.18;;
78402;SDS011;67687;43.508;1.504;2023-05-20T02:11:01;11.07;;;5.82;;
78402;SDS011;67687;43.508;1.504;2023-05-20T02:13:28;11.27;;;6.30;;
78402;SDS011;67687;43.508;1.504;2023-05-20T02:15:56;9.85;;;5.80;;
78402;SDS011;67687;43.508;1.504;2023-05-20T02:18:23;10.37;;;6.20;;
78402;SDS011;67687;43.508;1.504;2023-05-20T02:20:50;10.52;;;5.95;;
78402;SDS011;67687;43.508;1.504;2023-05-20T02:23:17;12.45;;;6.15;;
78402;SDS011;67687;43.508;1.504;2023-05-20T02:25:44;12.00;;;6.00;;
78402;SDS011;67687;43.508;1.504;2023-05-20T02:28:11;12.13;;;6.15;;
78402;SDS011;67687;43.508;1.504;2023-05-20T02:30:37;11.60;;;6.03;;
78402;SDS011;67687;43.508;1.504;2023-05-20T02:33:06;12.13;;;6.57;;
78402;SDS011;67687;43.508;1.504;2023-05-20T02:35:33;15.05;;;5.70;;
78402;SDS011;67687;43.508;1.504;2023-05-20T02:38:00;12.65;;;6.10;;
78402;SDS011;67687;43.508;1.504;2023-05-20T02:40:27;11.40;;;5.60;;
78402;SDS011;67687;43.508;1.504;2023-05-20T02:42:54;12.80;;;6.63;;
78402;SDS011;67687;43.508;1.504;2023-05-20T02:45:20;12.25;;;6.03;;
78402;SDS011;67687;43.508;1.504;2023-05-20T02:47:47;13.57;;;6.70;;
78402;SDS011;67687;43.508;1.504;2023-05-20T02:50:15;10.77;;;6.45;;
78402;SDS011;67687;43.508;1.504;2023-05-20T02:52:42;12.25;;;6.07;;
78402;SDS011;67687;43.508;1.504;2023-05-20T02:55:09;10.20;;;6.40;;
78402;SDS011;67687;43.508;1.504;2023-05-20T02:57:36;13.65;;;6.75;;
78402;SDS011;67687;43.508;1.504;2023-05-20T03:00:03;15.77;;;6.57;;
78402;SDS011;67687;43.508;1.504;2023-05-20T03:02:32;12.90;;;6.25;;
78402;SDS011;67687;43.508;1.504;2023-05-20T03:04:59;12.90;;;6.10;;
78402;SDS011;67687;43.508;1.504;2023-05-20T03:07:28;14.27;;;7.00;;
78402;SDS011;67687;43.508;1.504;2023-05-20T03:09:54;13.38;;;7.00;;
78402;SDS011;67687;43.508;1.504;2023-05-20T03:12:23;14.27;;;6.40;;
78402;SDS011;67687;43.508;1.504;2023-05-20T03:14:50;12.88;;;6.32;;
78402;SDS011;67687;43.508;1.504;2023-05-20T03:17:19;12.35;;;7.45;;
78402;SDS011;67687;43.508;1.504;2023-05-20T03:19:46;12.37;;;6.80;;
78402;SDS011;67687;43.508;1.504;2023-05-20T03:22:12;13.70;;;6.28;;
78402;SDS011;67687;43.508;1.504;2023-05-20T03:24:40;13.50;;;6.75;;
78402;SDS011;67687;43.508;1.504;2023-05-20T03:27:08;13.50;;;6.70;;
78402;SDS011;67687;43.508;1.504;2023-05-20T03:29:35;12.75;;;6.80;;
78402;SDS011;67687;43.508;1.504;2023-05-20T03:32:01;14.10;;;7.20;;
78402;SDS011;67687;43.508;1.504;2023-05-20T03:34:28;14.82;;;7.00;;
78402;SDS011;67687;43.508;1.504;2023-05-20T03:36:55;14.02;;;7.10;;
78402;SDS011;67687;43.508;1.504;2023-05-20T03:39:24;13.50;;;7.10;;
78402;SDS011;67687;43.508;1.504;2023-05-20T03:41:52;13.77;;;7.00;;
78402;SDS011;67687;43.508;1.504;2023-05-20T03:44:19;12.40;;;6.93;;
78402;SDS011;67687;43.508;1.504;2023-05-20T03:46:45;12.88;;;7.30;;
78402;SDS011;67687;43.508;1.504;2023-05-20T03:49:12;14.40;;;6.50;;
78402;SDS011;67687;43.508;1.504;2023-05-20T03:51:39;15.48;;;7.80;;
78402;SDS011;67687;43.508;1.504;2023-05-20T03:54:05;13.65;;;7.45;;
78402;SDS011;67687;43.508;1.504;2023-05-20T03:56:32;13.10;;;6.57;;
78402;SDS011;67687;43.508;1.504;2023-05-20T03:59:01;13.38;;;6.65;;
78402;SDS011;67687;43.508;1.504;2023-05-20T04:01:28;14.35;;;6.80;;
78402;SDS011;67687;43.508;1.504;2023-05-20T04:03:56;14.10;;;7.90;;
78402;SDS011;67687;43.508;1.504;2023-05-20T04:06:22;11.95;;;7.03;;
78402;SDS011;67687;43.508;1.504;2023-05-20T04:08:50;13.63;;;6.80;;
78402;SDS011;67687;43.508;1.504;2023-05-20T04:11:18;14.35;;;7.18;;
78402;SDS011;67687;43.508;1.504;2023-05-20T04:13:45;15.63;;;6.88;;
78402;SDS011;67687;43.508;1.504;2023-05-20T04:16:13;13.63;;;7.63;;
78402;SDS011;67687;43.508;1.504;2023-05-20T04:18:40;13.82;;;7.03;;
78402;SDS011;67687;43.508;1.504;2023-05-20T04:21:10;11.83;;;7.20;;
78402;SDS011;67687;43.508;1.504;2023-05-20T04:23:36;13.68;;;7.65;;
78402;SDS011;67687;43.508;1.504;2023-05-20T04:26:03;14.82;;;7.20;;
78402;SDS011;67687;43.508;1.504;2023-05-20T04:28:30;14.45;;;7.60;;
78402;SDS011;67687;43.508;1.504;2023-05-20T04:30:57;15.20;;;7.60;;
78402;SDS011;67687;43.508;1.504;2023-05-20T04:33:25;13.53;;;7.60;;
78402;SDS011;67687;43.508;1.504;2023-05-20T04:35:52;14.20;;;7.43;;
78402;SDS011;67687;43.508;1.504;2023-05-20T04:38:22;13.13;;;8.07;;
78402;SDS011;67687;43.508;1.504;2023-05-20T04:40:53;15.55;;;8.07;;
78402;SDS011;67687;43.508;1.504;2023-05-20T04:43:22;15.13;;;7.78;;
78402;SDS011;67687;43.508;1.504;2023-05-20T04:45:49;16.23;;;7.77;;
78402;SDS011;67687;43.508;1.504;2023-05-20T04:48:17;15.32;;;7.28;;
78402;SDS011;67687;43.508;1.504;2023-05-20T04:50:46;17.75;;;8.27;;
78402;SDS011;67687;43.508;1.504;2023-05-20T04:53:13;14.43;;;7.55;;
78402;SDS011;67687;43.508;1.504;2023-05-20T04:55:40;18.50;;;8.38;;
78402;SDS011;67687;43.508;1.504;2023-05-20T04:58:07;15.57;;;7.97;;
78402;SDS011;67687;43.508;1.504;2023-05-20T05:00:39;12.32;;;7.70;;
78402;SDS011;67687;43.508;1.504;2023-05-20T05:03:06;17.35;;;8.00;;
78402;SDS011;67687;43.508;1.504;2023-05-20T05:05:33;14.48;;;7.13;;
78402;SDS011;67687;43.508;1.504;2023-05-20T05:08:02;15.20;;;7.82;;
78402;SDS011;67687;43.508;1.504;2023-05-20T05:10:28;14.60;;;7.90;;
78402;SDS011;67687;43.508;1.504;2023-05-20T05:12:55;14.50;;;7.50;;
78402;SDS011;67687;43.508;1.504;2023-05-20T05:15:22;13.40;;;7.78;;
78402;SDS011;67687;43.508;1.504;2023-05-20T05:17:49;14.40;;;8.18;;
78402;SDS011;67687;43.508;1.504;2023-05-20T05:20:16;14.27;;;8.20;;
78402;SDS011;67687;43.508;1.504;2023-05-20T05:22:42;14.90;;;8.17;;
78402;SDS011;67687;43.508;1.504;2023-05-20T05:25:11;15.30;;;7.97;;
78402;SDS011;67687;43.508;1.504;2023-05-20T05:27:38;17.55;;;8.13;;
78402;SDS011;67687;43.508;1.504;2023-05-20T05:30:05;16.95;;;8.15;;
78402;SDS011;67687;43.508;1.504;2023-05-20T05:32:33;14.20;;;7.68;;
78402;SDS011;67687;43.508;1.504;2023-05-20T05:35:00;14.73;;;7.57;;
78402;SDS011;67687;43.508;1.504;2023-05-20T05:37:27;17.88;;;8.13;;
78402;SDS011;67687;43.508;1.504;2023-05-20T05:39:53;16.70;;;7.80;;
78402;SDS011;67687;43.508;1.504;2023-05-20T05:42:21;15.98;;;7.93;;
78402;SDS011;67687;43.508;1.504;2023-05-20T05:44:48;13.73;;;7.30;;
78402;SDS011;67687;43.508;1.504;2023-05-20T05:47:16;16.30;;;9.03;;
78402;SDS011;67687;43.508;1.504;2023-05-20T05:49:42;17.40;;;7.80;;
78402;SDS011;67687;43.508;1.504;2023-05-20T05:52:09;17.88;;;7.97;;
78402;SDS011;67687;43.508;1.504;2023-05-20T05:54:36;14.32;;;7.88;;
78402;SDS011;67687;43.508;1.504;2023-05-20T05:57:03;14.50;;;8.07;;
78402;SDS011;67687;43.508;1.504;2023-05-20T05:59:33;16.80;;;7.90;;
78402;SDS011;67687;43.508;1.504;2023-05-20T06:02:00;14.13;;;7.22;;
78402;SDS011;67687;43.508;1.504;2023-05-20T06:04:26;14.55;;;7.75;;
78402;SDS011;67687;43.508;1.504;2023-05-20T06:06:53;13.23;;;7.38;;
78402;SDS011;67687;43.508;1.504;2023-05-20T06:09:20;14.15;;;7.82;;
78402;SDS011;67687;43.508;1.504;2023-05-20T06:11:47;14.97;;;7.47;;
78402;SDS011;67687;43.508;1.504;2023-05-20T06:14:13;15.75;;;7.95;;
78402;SDS011;67687;43.508;1.504;2023-05-20T06:16:41;15.32;;;7.53;;
78402;SDS011;67687;43.508;1.504;2023-05-20T06:19:08;12.13;;;7.00;;
78402;SDS011;67687;43.508;1.504;2023-05-20T06:21:35;15.90;;;7.50;;
78402;SDS011;67687;43.508;1.504;2023-05-20T06:24:02;16.47;;;8.63;;
78402;SDS011;67687;43.508;1.504;2023-05-20T06:26:29;15.68;;;7.68;;
78402;SDS011;67687;43.508;1.504;2023-05-20T06:28:56;17.10;;;8.00;;
78402;SDS011;67687;43.508;1.504;2023-05-20T06:31:23;13.00;;;7.65;;
78402;SDS011;67687;43.508;1.504;2023-05-20T06:33:51;14.70;;;8.20;;
78402;SDS011;67687;43.508;1.504;2023-05-20T06:36:18;15.17;;;6.97;;
78402;SDS011;67687;43.508;1.504;2023-05-20T06:38:46;13.05;;;7.13;;
78402;SDS011;67687;43.508;1.504;2023-05-20T06:41:13;14.02;;;7.03;;
78402;SDS011;67687;43.508;1.504;2023-05-20T06:43:40;13.35;;;7.40;;
78402;SDS011;67687;43.508;1.504;2023-05-20T06:46:07;11.13;;;6.65;;
78402;SDS011;67687;43.508;1.504;2023-05-20T06:48:33;11.57;;;6.90;;
78402;SDS011;67687;43.508;1.504;2023-05-20T06:51:01;14.40;;;7.50;;
78402;SDS011;67687;43.508;1.504;2023-05-20T06:53:29;15.73;;;6.88;;
78402;SDS011;67687;43.508;1.504;2023-05-20T06:55:56;13.32;;;7.18;;
78402;SDS011;67687;43.508;1.504;2023-05-20T06:58:22;13.82;;;7.10;;
78402;SDS011;67687;43.508;1.504;2023-05-20T07:00:49;13.07;;;6.63;;
78402;SDS011;67687;43.508;1.504;2023-05-20T07:03:16;15.43;;;7.43;;
78402;SDS011;67687;43.508;1.504;2023-05-20T07:05:43;12.20;;;7.13;;
78402;SDS011;67687;43.508;1.504;2023-05-20T07:08:11;13.10;;;6.53;;
78402;SDS011;67687;43.508;1.504;2023-05-20T07:10:38;11.70;;;6.43;;
78402;SDS011;67687;43.508;1.504;2023-05-20T07:13:05;14.63;;;6.93;;
78402;SDS011;67687;43.508;1.504;2023-05-20T07:15:31;11.27;;;7.28;;
78402;SDS011;67687;43.508;1.504;2023-05-20T07:17:58;14.18;;;6.38;;
78402;SDS011;67687;43.508;1.504;2023-05-20T07:20:25;12.38;;;6.18;;
78402;SDS011;67687;43.508;1.504;2023-05-20T07:22:51;12.05;;;6.63;;
78402;SDS011;67687;43.508;1.504;2023-05-20T07:25:20;11.10;;;6.70;;
78402;SDS011;67687;43.508;1.504;2023-05-20T07:27:46;12.80;;;6.85;;
78402;SDS011;67687;43.508;1.504;2023-05-20T07:30:13;13.25;;;6.38;;
78402;SDS011;67687;43.508;1.504;2023-05-20T07:32:40;13.82;;;6.55;;
78402;SDS011;67687;43.508;1.504;2023-05-20T07:35:07;13.88;;;6.60;;
78402;SDS011;67687;43.508;1.504;2023-05-20T07:37:34;13.70;;;6.30;;
78402;SDS011;67687;43.508;1.504;2023-05-20T07:40:01;12.45;;;6.82;;
78402;SDS011;67687;43.508;1.504;2023-05-20T07:42:30;14.20;;;6.82;;
78402;SDS011;67687;43.508;1.504;2023-05-20T07:44:58;13.00;;;6.10;;
78402;SDS011;67687;43.508;1.504;2023-05-20T07:47:25;11.73;;;6.47;;
78402;SDS011;67687;43.508;1.504;2023-05-20T07:49:52;11.73;;;7.23;;
78402;SDS011;67687;43.508;1.504;2023-05-20T07:52:18;10.13;;;6.25;;
78402;SDS011;67687;43.508;1.504;2023-05-20T07:54:46;11.05;;;6.50;;
78402;SDS011;67687;43.508;1.504;2023-05-20T07:57:13;11.75;;;6.43;;
78402;SDS011;67687;43.508;1.504;2023-05-20T07:59:42;11.30;;;6.15;;
78402;SDS011;67687;43.508;1.504;2023-05-20T08:02:09;9.33;;;5.80;;
78402;SDS011;67687;43.508;1.504;2023-05-20T08:04:36;11.00;;;6.00;;
78402;SDS011;67687;43.508;1.504;2023-05-20T08:07:03;14.18;;;6.25;;
78402;SDS011;67687;43.508;1.504;2023-05-20T08:09:30;12.27;;;6.32;;
78402;SDS011;67687;43.508;1.504;2023-05-20T08:11:59;9.77;;;6.18;;
78402;SDS011;67687;43.508;1.504;2023-05-20T08:14:26;12.43;;;6.00;;
78402;SDS011;67687;43.508;1.504;2023-05-20T08:16:54;12.48;;;6.55;;
78402;SDS011;67687;43.508;1.504;2023-05-20T08:19:21;12.00;;;7.15;;
78402;SDS011;67687;43.508;1.504;2023-05-20T08:21:48;11.50;;;6.65;;
78402;SDS011;67687;43.508;1.504;2023-05-20T08:24:14;10.70;;;6.22;;
78402;SDS011;67687;43.508;1.504;2023-05-20T08:26:41;11.80;;;6.33;;
78402;SDS011;67687;43.508;1.504;2023-05-20T08:29:08;13.65;;;6.40;;
78402;SDS011;67687;43.508;1.504;2023-05-20T08:31:35;10.15;;;5.55;;
78402;SDS011;67687;43.508;1.504;2023-05-20T08:34:03;12.18;;;6.05;;
78402;SDS011;67687;43.508;1.504;2023-05-20T08:36:30;13.95;;;5.90;;
78402;SDS011;67687;43.508;1.504;2023-05-20T08:38:57;11.90;;;5.67;;
78402;SDS011;67687;43.508;1.504;2023-05-20T08:41:24;10.95;;;5.72;;
78402;SDS011;67687;43.508;1.504;2023-05-20T08:43:51;10.43;;;5.20;;
78402;SDS011;67687;43.508;1.504;2023-05-20T08:46:19;10.55;;;5.90;;
78402;SDS011;67687;43.508;1.504;2023-05-20T08:48:47;12.05;;;5.65;;
78402;SDS011;67687;43.508;1.504;2023-05-20T08:51:17;10.17;;;5.43;;
78402;SDS011;67687;43.508;1.504;2023-05-20T08:53:47;10.10;;;5.97;;
78402;SDS011;67687;43.508;1.504;2023-05-20T08:56:14;11.85;;;6.18;;
78402;SDS011;67687;43.508;1.504;2023-05-20T08:58:42;10.93;;;5.90;;
78402;SDS011;67687;43.508;1.504;2023-05-20T09:01:10;11.23;;;5.93;;
78402;SDS011;67687;43.508;1.504;2023-05-20T09:03:37;10.67;;;6.10;;
78402;SDS011;67687;43.508;1.504;2023-05-20T09:06:04;10.13;;;5.30;;
78402;SDS011;67687;43.508;1.504;2023-05-20T09:08:33;9.45;;;4.97;;
78402;SDS011;67687;43.508;1.504;2023-05-20T09:11:00;9.52;;;5.50;;
78402;SDS011;67687;43.508;1.504;2023-05-20T09:13:28;11.05;;;5.55;;
78402;SDS011;67687;43.508;1.504;2023-05-20T09:15:57;9.80;;;5.47;;
78402;SDS011;67687;43.508;1.504;2023-05-20T09:18:25;10.88;;;5.80;;
78402;SDS011;67687;43.508;1.504;2023-05-20T09:20:52;11.50;;;5.28;;
78402;SDS011;67687;43.508;1.504;2023-05-20T09:23:18;9.75;;;5.82;;
78402;SDS011;67687;43.508;1.504;2023-05-20T09:25:47;11.05;;;5.22;;
78402;SDS011;67687;43.508;1.504;2023-05-20T09:28:15;10.83;;;4.90;;
78402;SDS011;67687;43.508;1.504;2023-05-20T09:30:41;8.88;;;5.15;;
78402;SDS011;67687;43.508;1.504;2023-05-20T09:33:10;10.57;;;5.50;;
78402;SDS011;67687;43.508;1.504;2023-05-20T09:35:38;10.80;;;5.78;;
78402;SDS011;67687;43.508;1.504;2023-05-20T09:38:05;9.45;;;5.45;;
78402;SDS011;67687;43.508;1.504;2023-05-20T09:40:32;11.70;;;5.43;;
78402;SDS011;67687;43.508;1.504;2023-05-20T09:43:03;10.73;;;4.95;;
78402;SDS011;67687;43.508;1.504;2023-05-20T09:45:31;10.23;;;5.00;;
78402;SDS011;67687;43.508;1.504;2023-05-20T09:47:58;8.00;;;4.28;;
78402;SDS011;67687;43.508;1.504;2023-05-20T09:50:26;9.40;;;5.13;;
78402;SDS011;67687;43.508;1.504;2023-05-20T09:52:53;9.00;;;5.07;;
78402;SDS011;67687;43.508;1.504;2023-05-20T09:55:21;11.93;;;5.32;;
78402;SDS011;67687;43.508;1.504;2023-05-20T09:57:49;10.40;;;5.03;;
78402;SDS011;67687;43.508;1.504;2023-05-20T10:00:17;9.40;;;4.20;;
78402;SDS011;67687;43.508;1.504;2023-05-20T10:02:46;9.30;;;4.65;;
78402;SDS011;67687;43.508;1.504;2023-05-20T10:05:16;7.87;;;4.80;;
78402;SDS011;67687;43.508;1.504;2023-05-20T10:10:42;9.30;;;4.82;;
78402;SDS011;67687;43.508;1.504;2023-05-20T10:13:15;10.50;;;4.40;;
78402;SDS011;67687;43.508;1.504;2023-05-20T10:15:50;10.13;;;4.45;;
78402;SDS011;67687;43.508;1.504;2023-05-20T10:18:26;10.60;;;5.30;;
78402;SDS011;67687;43.508;1.504;2023-05-20T10:20:58;9.85;;;5.05;;
78402;SDS011;67687;43.508;1.504;2023-05-20T10:23:28;10.07;;;4.45;;
78402;SDS011;67687;43.508;1.504;2023-05-20T10:25:57;10.50;;;4.97;;
78402;SDS011;67687;43.508;1.504;2023-05-20T10:28:27;8.05;;;4.60;;
78402;SDS011;67687;43.508;1.504;2023-05-20T10:30:56;6.83;;;4.23;;
78402;SDS011;67687;43.508;1.504;2023-05-20T10:33:24;7.90;;;4.60;;
78402;SDS011;67687;43.508;1.504;2023-05-20T10:35:52;8.95;;;4.80;;
78402;SDS011;67687;43.508;1.504;2023-05-20T10:38:19;7.70;;;4.30;;
78402;SDS011;67687;43.508;1.504;2023-05-20T10:40:46;8.80;;;5.50;;
78402;SDS011;67687;43.508;1.504;2023-05-20T10:43:14;10.27;;;4.57;;
78402;SDS011;67687;43.508;1.504;2023-05-20T10:45:49;8.40;;;5.00;;
78402;SDS011;67687;43.508;1.504;2023-05-20T10:48:22;8.23;;;4.38;;
78402;SDS011;67687;43.508;1.504;2023-05-20T10:50:49;8.65;;;4.57;;
78402;SDS011;67687;43.508;1.504;2023-05-20T10:53:17;7.82;;;4.30;;
78402;SDS011;67687;43.508;1.504;2023-05-20T10:55:50;7.67;;;4.37;;
78402;SDS011;67687;43.508;1.504;2023-05-20T10:58:18;8.80;;;4.40;;
78402;SDS011;67687;43.508;1.504;2023-05-20T11:00:46;8.70;;;4.75;;
78402;SDS011;67687;43.508;1.504;2023-05-20T11:03:14;8.02;;;4.68;;
78402;SDS011;67687;43.508;1.504;2023-05-20T11:05:44;8.95;;;4.20;;
78402;SDS011;67687;43.508;1.504;2023-05-20T11:08:12;12.33;;;4.20;;
78402;SDS011;67687;43.508;1.504;2023-05-20T11:10:40;7.78;;;3.97;;
78402;SDS011;67687;43.508;1.504;2023-05-20T11:13:07;7.40;;;3.70;;
78402;SDS011;67687;43.508;1.504;2023-05-20T11:15:34;8.70;;;4.05;;
78402;SDS011;67687;43.508;1.504;2023-05-20T11:18:02;8.32;;;4.20;;
78402;SDS011;67687;43.508;1.504;2023-05-20T11:20:29;9.07;;;4.27;;
78402;SDS011;67687;43.508;1.504;2023-05-20T11:23:01;6.20;;;4.22;;
78402;SDS011;67687;43.508;1.504;2023-05-20T11:25:28;11.23;;;4.60;;
78402;SDS011;67687;43.508;1.504;2023-05-20T11:27:55;8.38;;;3.67;;
78402;SDS011;67687;43.508;1.504;2023-05-20T11:30:22;7.57;;;4.00;;
78402;SDS011;67687;43.508;1.504;2023-05-20T11:32:55;6.07;;;3.60;;
78402;SDS011;67687;43.508;1.504;2023-05-20T11:35:24;8.13;;;3.90;;
78402;SDS011;67687;43.508;1.504;2023-05-20T11:38:00;6.45;;;3.85;;
78402;SDS011;67687;43.508;1.504;2023-05-20T11:40:29;8.38;;;3.60;;
78402;SDS011;67687;43.508;1.504;2023-05-20T11:42:57;8.45;;;3.58;;
78402;SDS011;67687;43.508;1.504;2023-05-20T11:45:25;7.30;;;3.53;;
78402;SDS011;67687;43.508;1.504;2023-05-20T11:47:59;7.28;;;3.40;;
78402;SDS011;67687;43.508;1.504;2023-05-20T11:50:26;7.35;;;2.97;;
78402;SDS011;67687;43.508;1.504;2023-05-20T11:52:57;8.63;;;3.55;;
78402;SDS011;67687;43.508;1.504;2023-05-20T11:55:26;5.20;;;3.20;;
78402;SDS011;67687;43.508;1.504;2023-05-20T11:57:53;8.60;;;3.90;;
78402;SDS011;67687;43.508;1.504;2023-05-20T12:00:20;7.57;;;3.45;;
78402;SDS011;67687;43.508;1.504;2023-05-20T12:02:47;6.57;;;3.80;;
78402;SDS011;67687;43.508;1.504;2023-05-20T12:05:14;7.40;;;3.75;;
78402;SDS011;67687;43.508;1.504;2023-05-20T12:07:42;8.27;;;3.40;;
78402;SDS011;67687;43.508;1.504;2023-05-20T12:10:09;6.77;;;3.77;;
78402;SDS011;67687;43.508;1.504;2023-05-20T12:12:39;6.35;;;3.50;;
78402;SDS011;67687;43.508;1.504;2023-05-20T12:15:06;8.10;;;3.63;;
78402;SDS011;67687;43.508;1.504;2023-05-20T12:17:42;5.13;;;3.45;;
78402;SDS011;67687;43.508;1.504;2023-05-20T12:20:10;6.40;;;3.25;;
78402;SDS011;67687;43.508;1.504;2023-05-20T12:22:38;6.13;;;2.93;;
78402;SDS011;67687;43.508;1.504;2023-05-20T12:25:05;5.18;;;2.83;;
78402;SDS011;67687;43.508;1.504;2023-05-20T12:27:32;6.90;;;3.17;;
78402;SDS011;67687;43.508;1.504;2023-05-20T12:30:01;6.15;;;2.92;;
78402;SDS011;67687;43.508;1.504;2023-05-20T12:32:27;6.45;;;3.03;;
78402;SDS011;67687;43.508;1.504;2023-05-20T12:34:54;6.27;;;3.10;;
78402;SDS011;67687;43.508;1.504;2023-05-20T12:37:21;5.22;;;2.70;;
78402;SDS011;67687;43.508;1.504;2023-05-20T12:39:48;4.85;;;3.05;;
78402;SDS011;67687;43.508;1.504;2023-05-20T12:42:15;6.25;;;3.00;;
78402;SDS011;67687;43.508;1.504;2023-05-20T12:44:41;5.53;;;3.22;;
78402;SDS011;67687;43.508;1.504;2023-05-20T12:47:09;6.03;;;3.00;;
78402;SDS011;67687;43.508;1.504;2023-05-20T12:49:36;4.72;;;2.65;;
78402;SDS011;67687;43.508;1.504;2023-05-20T12:52:03;4.80;;;2.80;;
78402;SDS011;67687;43.508;1.504;2023-05-20T12:54:30;5.10;;;2.40;;
78402;SDS011;67687;43.508;1.504;2023-05-20T12:56:57;5.43;;;2.28;;
78402;SDS011;67687;43.508;1.504;2023-05-20T12:59:24;4.90;;;2.70;;
78402;SDS011;67687;43.508;1.504;2023-05-20T13:01:51;6.07;;;3.00;;
78402;SDS011;67687;43.508;1.504;2023-05-20T13:04:19;4.43;;;2.58;;
78402;SDS011;67687;43.508;1.504;2023-05-20T13:06:46;5.75;;;2.92;;
78402;SDS011;67687;43.508;1.504;2023-05-20T13:09:12;4.93;;;2.53;;
78402;SDS011;67687;43.508;1.504;2023-05-20T13:11:39;6.13;;;2.93;;
78402;SDS011;67687;43.508;1.504;2023-05-20T13:14:06;7.10;;;3.00;;
78402;SDS011;67687;43.508;1.504;2023-05-20T13:16:32;5.35;;;2.75;;
78402;SDS011;67687;43.508;1.504;2023-05-20T13:18:59;9.07;;;3.00;;
78402;SDS011;67687;43.508;1.504;2023-05-20T13:21:27;4.88;;;2.55;;
78402;SDS011;67687;43.508;1.504;2023-05-20T13:23:55;6.30;;;2.37;;
78402;SDS011;67687;43.508;1.504;2023-05-20T13:26:22;4.55;;;2.60;;
78402;SDS011;67687;43.508;1.504;2023-05-20T13:28:49;4.93;;;2.70;;
78402;SDS011;67687;43.508;1.504;2023-05-20T13:31:15;5.00;;;2.70;;
78402;SDS011;67687;43.508;1.504;2023-05-20T13:33:42;6.72;;;3.17;;
78402;SDS011;67687;43.508;1.504;2023-05-20T13:36:09;6.37;;;3.20;;
78402;SDS011;67687;43.508;1.504;2023-05-20T13:38:37;5.93;;;2.83;;
78402;SDS011;67687;43.508;1.504;2023-05-20T13:41:04;5.15;;;3.05;;
78402;SDS011;67687;43.508;1.504;2023-05-20T13:43:30;5.47;;;2.75;;
78402;SDS011;67687;43.508;1.504;2023-05-20T13:45:57;4.65;;;2.67;;
78402;SDS011;67687;43.508;1.504;2023-05-20T13:48:24;5.77;;;2.70;;
78402;SDS011;67687;43.508;1.504;2023-05-20T13:50:51;4.95;;;2.50;;
78402;SDS011;67687;43.508;1.504;2023-05-20T13:53:18;5.47;;;2.67;;
78402;SDS011;67687;43.508;1.504;2023-05-20T13:55:46;5.70;;;2.92;;
78402;SDS011;67687;43.508;1.504;2023-05-20T13:58:13;4.55;;;2.53;;
78402;SDS011;67687;43.508;1.504;2023-05-20T14:00:40;5.27;;;2.77;;
78402;SDS011;67687;43.508;1.504;2023-05-20T14:03:06;6.95;;;2.88;;
78402;SDS011;67687;43.508;1.504;2023-05-20T14:05:34;5.63;;;3.08;;
78402;SDS011;67687;43.508;1.504;2023-05-20T14:08:01;6.57;;;3.30;;
78402;SDS011;67687;43.508;1.504;2023-05-20T14:10:28;5.63;;;3.20;;
78402;SDS011;67687;43.508;1.504;2023-05-20T14:12:57;5.73;;;3.30;;
78402;SDS011;67687;43.508;1.504;2023-05-20T14:15:26;5.90;;;3.30;;
78402;SDS011;67687;43.508;1.504;2023-05-20T14:17:54;6.75;;;3.22;;
78402;SDS011;67687;43.508;1.504;2023-05-20T14:20:22;6.35;;;3.10;;
78402;SDS011;67687;43.508;1.504;2023-05-20T14:22:48;7.03;;;3.22;;
78402;SDS011;67687;43.508;1.504;2023-05-20T14:25:15;7.27;;;3.40;;
78402;SDS011;67687;43.508;1.504;2023-05-20T14:27:42;8.05;;;3.10;;
78402;SDS011;67687;43.508;1.504;2023-05-20T14:30:10;5.68;;;3.10;;
78402;SDS011;67687;43.508;1.504;2023-05-20T14:32:37;6.50;;;3.10;;
78402;SDS011;67687;43.508;1.504;2023-05-20T14:35:05;5.35;;;3.03;;
78402;SDS011;67687;43.508;1.504;2023-05-20T14:37:32;4.83;;;2.67;;
78402;SDS011;67687;43.508;1.504;2023-05-20T14:39:59;6.47;;;3.22;;
78402;SDS011;67687;43.508;1.504;2023-05-20T14:42:26;6.05;;;3.25;;